sensor_id;sensor_type;location;lat;lon;timestamp;temperature;humidity
15949;DHT22;14848;50.954;6.642;2023-09-19T05:45:33;14.80;99.90
15949;DHT22;14848;50.954;6.642;2023-09-19T05:48:07;14.70;99.90
15949;DHT22;14848;50.954;6.642;2023-09-19T05:50:33;14.70;99.90
15949;DHT22;14848;50.954;6.642;2023-09-19T05:52:59;14.70;99.90
15949;DHT22;14848;50.954;6.642;2023-09-19T05:55:24;14.70;99.90
15949;DHT22;14848;50.954;6.642;2023-09-19T05:57:50;14.70;99.90
15949;DHT22;14848;50.954;6.642;2023-09-19T06:00:17;14.70;99.90
15949;DHT22;14848;50.954;6.642;2023-09-19T06:02:44;14.80;99.90
15949;DHT22;14848;50.954;6.642;2023-09-19T06:05:10;14.80;99.90
15949;DHT22;14848;50.954;6.642;2023-09-19T06:07:36;14.80;99.90
15949;DHT22;14848;50.954;6.642;2023-09-19T06:10:05;14.90;99.90
15949;DHT22;14848;50.954;6.642;2023-09-19T06:12:31;14.90;99.90
15949;DHT22;14848;50.954;6.642;2023-09-19T06:14:58;14.90;99.90
15949;DHT22;14848;50.954;6.642;2023-09-19T06:17:24;14.90;99.90
15949;DHT22;14848;50.954;6.642;2023-09-19T06:19:50;14.90;99.90
15949;DHT22;14848;50.954;6.642;2023-09-19T06:22:16;14.90;99.90
15949;DHT22;14848;50.954;6.642;2023-09-19T06:24:44;14.90;99.90
15949;DHT22;14848;50.954;6.642;2023-09-19T06:27:09;15.00;99.90
15949;DHT22;14848;50.954;6.642;2023-09-19T06:29:35;15.10;99.90
15949;DHT22;14848;50.954;6.642;2023-09-19T06:32:06;15.10;99.90
15949;DHT22;14848;50.954;6.642;2023-09-19T06:34:32;15.20;99.90
15949;DHT22;14848;50.954;6.642;2023-09-19T06:36:58;15.50;99.90
15949;DHT22;14848;50.954;6.642;2023-09-19T06:39:24;15.30;99.90
15949;DHT22;14848;50.954;6.642;2023-09-19T06:41:51;15.40;99.90
15949;DHT22;14848;50.954;6.642;2023-09-19T06:44:19;15.50;90.10
15949;DHT22;14848;50.954;6.642;2023-09-19T06:46:47;15.60;50.00
15949;DHT22;14848;50.954;6.642;2023-09-19T06:49:15;15.60;1.00
15949;DHT22;14848;50.954;6.642;2023-09-19T06:51:40;15.70;1.00
15949;DHT22;14848;50.954;6.642;2023-09-19T06:54:07;15.80;1.00
15949;DHT22;14848;50.954;6.642;2023-09-19T06:56:32;15.90;1.00
15949;DHT22;14848;50.954;6.642;2023-09-19T06:58:58;16.00;1.00
15949;DHT22;14848;50.954;6.642;2023-09-19T07:01:23;16.10;6.60
15949;DHT22;14848;50.954;6.642;2023-09-19T07:03:50;16.10;1.00
15949;DHT22;14848;50.954;6.642;2023-09-19T07:06:16;16.00;1.00
15949;DHT22;14848;50.954;6.642;2023-09-19T07:08:41;16.10;99.90
15949;DHT22;14848;50.954;6.642;2023-09-19T07:11:08;16.10;99.90
15949;DHT22;14848;50.954;6.642;2023-09-19T07:13:34;16.10;99.90
15949;DHT22;14848;50.954;6.642;2023-09-19T07:16:00;16.10;99.90
15949;DHT22;14848;50.954;6.642;2023-09-19T07:18:26;16.20;99.90
15949;DHT22;14848;50.954;6.642;2023-09-19T07:20:56;16.20;99.90
15949;DHT22;14848;50.954;6.642;2023-09-19T07:23:24;16.20;99.90
15949;DHT22;14848;50.954;6.642;2023-09-19T07:25:51;16.30;99.90
15949;DHT22;14848;50.954;6.642;2023-09-19T07:28:17;16.40;99.90
15949;DHT22;14848;50.954;6.642;2023-09-19T07:30:42;16.30;99.90
15949;DHT22;14848;50.954;6.642;2023-09-19T07:33:08;16.40;99.90
15949;DHT22;14848;50.954;6.642;2023-09-19T07:35:36;16.50;99.90
15949;DHT22;14848;50.954;6.642;2023-09-19T07:38:05;16.60;99.90
15949;DHT22;14848;50.954;6.642;2023-09-19T07:40:30;16.70;99.90
15949;DHT22;14848;50.954;6.642;2023-09-19T07:42:56;16.80;99.90
15949;DHT22;14848;50.954;6.642;2023-09-19T07:45:21;16.80;99.90
15949;DHT22;14848;50.954;6.642;2023-09-19T07:47:48;16.90;99.90
15949;DHT22;14848;50.954;6.642;2023-09-19T07:50:14;17.00;1.00
15949;DHT22;14848;50.954;6.642;2023-09-19T07:52:41;17.10;99.90
15949;DHT22;14848;50.954;6.642;2023-09-19T07:55:08;17.20;99.90
15949;DHT22;14848;50.954;6.642;2023-09-19T07:57:35;17.30;99.90
15949;DHT22;14848;50.954;6.642;2023-09-19T08:00:01;17.40;99.90
15949;DHT22;14848;50.954;6.642;2023-09-19T08:02:30;17.50;99.90
15949;DHT22;14848;50.954;6.642;2023-09-19T08:04:55;17.40;99.90
15949;DHT22;14848;50.954;6.642;2023-09-19T08:07:22;17.50;99.90
15949;DHT22;14848;50.954;6.642;2023-09-19T08:09:48;17.50;99.90
15949;DHT22;14848;50.954;6.642;2023-09-19T08:12:14;17.50;99.90
15949;DHT22;14848;50.954;6.642;2023-09-19T08:14:40;17.60;99.90
15949;DHT22;14848;50.954;6.642;2023-09-19T08:17:06;17.50;99.90
15949;DHT22;14848;50.954;6.642;2023-09-19T08:19:33;17.70;99.90
15949;DHT22;14848;50.954;6.642;2023-09-19T08:21:59;17.80;99.90
15949;DHT22;14848;50.954;6.642;2023-09-19T08:24:28;16.80;99.90
15949;DHT22;14848;50.954;6.642;2023-09-19T08:26:54;18.00;99.90
15949;DHT22;14848;50.954;6.642;2023-09-19T08:29:20;18.20;99.90
15949;DHT22;14848;50.954;6.642;2023-09-19T08:31:46;18.20;99.90
15949;DHT22;14848;50.954;6.642;2023-09-19T08:34:15;18.30;99.90
15949;DHT22;14848;50.954;6.642;2023-09-19T08:36:41;18.30;99.90
15949;DHT22;14848;50.954;6.642;2023-09-19T08:39:08;18.30;99.90
15949;DHT22;14848;50.954;6.642;2023-09-19T08:41:34;18.20;99.90
15949;DHT22;14848;50.954;6.642;2023-09-19T08:44:00;18.10;99.90
15949;DHT22;14848;50.954;6.642;2023-09-19T08:46:30;18.00;99.90
15949;DHT22;14848;50.954;6.642;2023-09-19T08:51:27;18.20;99.90
15949;DHT22;14848;50.954;6.642;2023-09-19T08:54:08;18.30;99.90
15949;DHT22;14848;50.954;6.642;2023-09-19T08:56:39;18.40;99.90
15949;DHT22;14848;50.954;6.642;2023-09-19T08:59:06;18.40;99.90
15949;DHT22;14848;50.954;6.642;2023-09-19T09:01:38;18.50;99.90
15949;DHT22;14848;50.954;6.642;2023-09-19T09:04:08;18.60;99.90
15949;DHT22;14848;50.954;6.642;2023-09-19T09:06:34;18.60;99.90
15949;DHT22;14848;50.954;6.642;2023-09-19T09:09:02;18.60;99.90
15949;DHT22;14848;50.954;6.642;2023-09-19T09:11:28;18.70;99.90
15949;DHT22;14848;50.954;6.642;2023-09-19T09:13:54;18.60;99.90
15949;DHT22;14848;50.954;6.642;2023-09-19T09:16:20;18.70;99.90
15949;DHT22;14848;50.954;6.642;2023-09-19T09:18:46;18.80;99.90
15949;DHT22;14848;50.954;6.642;2023-09-19T09:21:18;18.90;99.90
15949;DHT22;14848;50.954;6.642;2023-09-19T09:23:43;18.80;99.90
15949;DHT22;14848;50.954;6.642;2023-09-19T09:26:09;18.90;99.90
15949;DHT22;14848;50.954;6.642;2023-09-19T09:28:35;19.00;99.90
15949;DHT22;14848;50.954;6.642;2023-09-19T09:31:04;18.80;99.90
15949;DHT22;14848;50.954;6.642;2023-09-19T09:33:38;18.90;99.90
15949;DHT22;14848;50.954;6.642;2023-09-19T09:36:05;19.00;99.90
15949;DHT22;14848;50.954;6.642;2023-09-19T09:38:45;18.90;99.90
15949;DHT22;14848;50.954;6.642;2023-09-19T09:41:11;19.10;99.90
15949;DHT22;14848;50.954;6.642;2023-09-19T09:43:41;19.20;99.90
15949;DHT22;14848;50.954;6.642;2023-09-19T09:48:58;19.10;99.90
15949;DHT22;14848;50.954;6.642;2023-09-19T09:51:44;19.20;99.90
15949;DHT22;14848;50.954;6.642;2023-09-19T09:54:15;19.30;99.90
15949;DHT22;14848;50.954;6.642;2023-09-19T09:57:01;19.20;99.90
15949;DHT22;14848;50.954;6.642;2023-09-19T10:02:20;19.30;99.90
15949;DHT22;14848;50.954;6.642;2023-09-19T10:04:58;19.50;99.90
15949;DHT22;14848;50.954;6.642;2023-09-19T10:07:33;19.50;99.90
15949;DHT22;14848;50.954;6.642;2023-09-19T10:10:04;19.50;99.90
15949;DHT22;14848;50.954;6.642;2023-09-19T10:12:52;19.50;99.90
15949;DHT22;14848;50.954;6.642;2023-09-19T10:15:23;19.60;99.90
15949;DHT22;14848;50.954;6.642;2023-09-19T10:17:52;19.50;99.90
15949;DHT22;14848;50.954;6.642;2023-09-19T10:20:22;19.10;99.90
15949;DHT22;14848;50.954;6.642;2023-09-19T10:23:10;19.60;99.90
15949;DHT22;14848;50.954;6.642;2023-09-19T10:25:42;19.80;99.90
15949;DHT22;14848;50.954;6.642;2023-09-19T10:28:12;19.80;99.90
15949;DHT22;14848;50.954;6.642;2023-09-19T10:30:41;19.90;99.90
15949;DHT22;14848;50.954;6.642;2023-09-19T10:33:11;20.30;99.90
15949;DHT22;14848;50.954;6.642;2023-09-19T10:35:42;19.80;99.90
15949;DHT22;14848;50.954;6.642;2023-09-19T10:38:13;19.80;99.90
15949;DHT22;14848;50.954;6.642;2023-09-19T10:40:39;19.90;99.90
15949;DHT22;14848;50.954;6.642;2023-09-19T10:43:21;20.00;99.90
15949;DHT22;14848;50.954;6.642;2023-09-19T10:45:50;20.00;99.90
15949;DHT22;14848;50.954;6.642;2023-09-19T10:48:18;20.10;99.90
15949;DHT22;14848;50.954;6.642;2023-09-19T10:50:50;20.00;99.90
15949;DHT22;14848;50.954;6.642;2023-09-19T10:53:17;19.90;99.90
15949;DHT22;14848;50.954;6.642;2023-09-19T11:33:18;19.70;99.90
15949;DHT22;14848;50.954;6.642;2023-09-19T11:36:03;19.70;99.90
15949;DHT22;14848;50.954;6.642;2023-09-19T11:44:37;19.70;99.90
15949;DHT22;14848;50.954;6.642;2023-09-19T11:46:56;19.70;99.90
15949;DHT22;14848;50.954;6.642;2023-09-19T11:49:31;19.90;99.90
15949;DHT22;14848;50.954;6.642;2023-09-19T11:54:31;20.00;99.90
15949;DHT22;14848;50.954;6.642;2023-09-19T11:56:58;20.10;99.90
15949;DHT22;14848;50.954;6.642;2023-09-19T11:59:29;20.10;99.90
15949;DHT22;14848;50.954;6.642;2023-09-19T12:02:06;20.10;99.90
15949;DHT22;14848;50.954;6.642;2023-09-19T12:07:09;20.20;99.90
15949;DHT22;14848;50.954;6.642;2023-09-19T12:22:16;20.50;99.90
15949;DHT22;14848;50.954;6.642;2023-09-19T12:27:10;20.50;99.90
15949;DHT22;14848;50.954;6.642;2023-09-19T12:32:15;20.40;99.90
15949;DHT22;14848;50.954;6.642;2023-09-19T12:34:52;20.40;99.90
15949;DHT22;14848;50.954;6.642;2023-09-19T12:37:20;20.40;99.90
15949;DHT22;14848;50.954;6.642;2023-09-19T12:39:53;20.50;99.90
15949;DHT22;14848;50.954;6.642;2023-09-19T12:42:24;20.60;99.90
15949;DHT22;14848;50.954;6.642;2023-09-19T12:44:54;20.80;99.90
15949;DHT22;14848;50.954;6.642;2023-09-19T12:50:11;20.70;99.90
15949;DHT22;14848;50.954;6.642;2023-09-19T13:00:40;20.80;99.90
15949;DHT22;14848;50.954;6.642;2023-09-19T13:03:24;20.90;99.90
15949;DHT22;14848;50.954;6.642;2023-09-19T13:05:58;21.20;99.90
15949;DHT22;14848;50.954;6.642;2023-09-19T13:13:42;21.00;99.90
15949;DHT22;14848;50.954;6.642;2023-09-19T13:16:10;20.90;99.90
15949;DHT22;14848;50.954;6.642;2023-09-19T13:23:43;21.10;99.90
15949;DHT22;14848;50.954;6.642;2023-09-19T13:26:10;21.00;99.90
15949;DHT22;14848;50.954;6.642;2023-09-19T13:28:37;21.00;99.90
15949;DHT22;14848;50.954;6.642;2023-09-19T13:31:03;21.10;99.90
15949;DHT22;14848;50.954;6.642;2023-09-19T13:35:54;21.30;99.90
15949;DHT22;14848;50.954;6.642;2023-09-19T13:38:22;21.40;99.90
15949;DHT22;14848;50.954;6.642;2023-09-19T13:43:15;21.70;99.90
15949;DHT22;14848;50.954;6.642;2023-09-19T13:45:41;21.90;99.90
15949;DHT22;14848;50.954;6.642;2023-09-19T13:48:08;22.00;99.90
15949;DHT22;14848;50.954;6.642;2023-09-19T13:50:37;22.10;99.90
15949;DHT22;14848;50.954;6.642;2023-09-19T13:53:08;22.10;99.90
15949;DHT22;14848;50.954;6.642;2023-09-19T13:55:33;22.20;99.90
15949;DHT22;14848;50.954;6.642;2023-09-19T13:57:59;22.20;99.90
15949;DHT22;14848;50.954;6.642;2023-09-19T14:00:25;22.10;99.90
15949;DHT22;14848;50.954;6.642;2023-09-19T14:02:52;22.10;99.90
15949;DHT22;14848;50.954;6.642;2023-09-19T14:05:18;21.90;99.90
15949;DHT22;14848;50.954;6.642;2023-09-19T14:07:44;21.70;99.90
15949;DHT22;14848;50.954;6.642;2023-09-19T14:10:11;21.60;99.90
15949;DHT22;14848;50.954;6.642;2023-09-19T14:12:37;21.50;99.90
15949;DHT22;14848;50.954;6.642;2023-09-19T14:15:07;21.50;99.90
15949;DHT22;14848;50.954;6.642;2023-09-19T14:17:33;21.70;99.90
15949;DHT22;14848;50.954;6.642;2023-09-19T14:19:59;21.60;99.90
15949;DHT22;14848;50.954;6.642;2023-09-19T14:22:25;21.50;99.90
15949;DHT22;14848;50.954;6.642;2023-09-19T14:24:51;21.50;99.90
15949;DHT22;14848;50.954;6.642;2023-09-19T14:27:18;21.50;99.90
15949;DHT22;14848;50.954;6.642;2023-09-19T14:29:44;21.50;99.90
15949;DHT22;14848;50.954;6.642;2023-09-19T14:32:10;21.40;99.90
15949;DHT22;14848;50.954;6.642;2023-09-19T14:34:35;21.30;99.90
15949;DHT22;14848;50.954;6.642;2023-09-19T14:37:07;21.40;99.90
15949;DHT22;14848;50.954;6.642;2023-09-19T14:39:33;21.30;99.90
15949;DHT22;14848;50.954;6.642;2023-09-19T14:41:59;21.30;99.90
15949;DHT22;14848;50.954;6.642;2023-09-19T14:44:24;21.30;99.90
15949;DHT22;14848;50.954;6.642;2023-09-19T14:46:50;21.30;99.90
15949;DHT22;14848;50.954;6.642;2023-09-19T14:49:16;21.10;99.90
15949;DHT22;14848;50.954;6.642;2023-09-19T14:51:42;21.30;99.90
15949;DHT22;14848;50.954;6.642;2023-09-19T14:54:13;21.20;99.90
15949;DHT22;14848;50.954;6.642;2023-09-19T14:56:42;21.00;99.90
15949;DHT22;14848;50.954;6.642;2023-09-19T14:59:08;20.80;99.90
15949;DHT22;14848;50.954;6.642;2023-09-19T15:01:36;20.70;99.90
15949;DHT22;14848;50.954;6.642;2023-09-19T15:04:02;20.80;99.90
15949;DHT22;14848;50.954;6.642;2023-09-19T15:06:28;20.60;99.90
15949;DHT22;14848;50.954;6.642;2023-09-19T15:08:53;20.60;99.90
15949;DHT22;14848;50.954;6.642;2023-09-19T15:11:20;20.60;99.90
15949;DHT22;14848;50.954;6.642;2023-09-19T15:13:47;20.50;99.90
15949;DHT22;14848;50.954;6.642;2023-09-19T15:16:13;20.60;99.90
15949;DHT22;14848;50.954;6.642;2023-09-19T15:18:40;20.50;99.90
15949;DHT22;14848;50.954;6.642;2023-09-19T15:21:08;20.60;99.90
15949;DHT22;14848;50.954;6.642;2023-09-19T15:23:35;20.70;99.90
15949;DHT22;14848;50.954;6.642;2023-09-19T15:26:07;20.30;99.90
15949;DHT22;14848;50.954;6.642;2023-09-19T15:28:34;20.60;99.90
15949;DHT22;14848;50.954;6.642;2023-09-19T15:31:05;20.40;99.90
15949;DHT22;14848;50.954;6.642;2023-09-19T15:36:05;20.50;99.90
15949;DHT22;14848;50.954;6.642;2023-09-19T15:38:31;20.50;99.90
15949;DHT22;14848;50.954;6.642;2023-09-19T15:41:00;20.40;99.90
15949;DHT22;14848;50.954;6.642;2023-09-19T15:43:26;20.50;99.90
15949;DHT22;14848;50.954;6.642;2023-09-19T15:45:51;20.40;99.90
15949;DHT22;14848;50.954;6.642;2023-09-19T15:48:17;20.40;99.90
15949;DHT22;14848;50.954;6.642;2023-09-19T15:50:44;20.30;99.90
